Northglenn, Colorado
Current Conditions -  °F | °C
As of 3:47 PM on Saturday 25 Oct 2014 (Local Time) from KBJC Reporting Station
Clear Clear  
Wind Chill: 79°   Ceiling: Unl
Heat Index: 79°   Visibility: 50mi
Dew Point: 21°   Wind: 8mph
Humidity: 12%   Direction: 110°ESE
Pressure: 30.11"   Gusts: NA
Location:  39.91°N, 104.98°W
Report Text: KBJC 252147Z 11007KT 50SM SKC 26/M06 A3011
Loading
Personal Weather Stations






























Interactive Weather Map New forecast layout! Learn more

10-Day Weather Forecast

Advertisements
Track Severe Weather on mobile